Time;durP1;ratioP1;P1;durP2;ratioP2;P2;SDS_P1;SDS_P2;PMS_P1;PMS_P2;Temp;Humidity;BMP_temperature;BMP_pressure;BME280_temperature;BME280_humidity;BME280_pressure;Samples;Min_cycle;Max_cycle;Signal;HPM_P1;HPM_P2
2023/12/15 00:01:20;;;;;;;59.43;31.27;;;6.40;99.90;;;;;;5093552;28;20058;-76
2023/12/15 00:03:45;;;;;;;59.03;29.93;;;6.40;99.90;;;;;;5093392;28;20388;-76
2023/12/15 00:06:11;;;;;;;67.20;31.83;;;6.50;99.90;;;;;;5096348;28;20093;-76
2023/12/15 00:08:37;;;;;;;74.37;33.93;;;6.40;99.90;;;;;;5096551;28;20136;-76
2023/12/15 00:11:03;;;;;;;58.53;30.33;;;6.50;99.90;;;;;;5096959;28;20560;-76
2023/12/15 00:13:29;;;;;;;72.43;34.50;;;6.50;99.90;;;;;;5096903;28;20385;-77
2023/12/15 00:15:55;;;;;;;72.10;33.73;;;6.50;99.90;;;;;;5096938;28;20289;-77
2023/12/15 00:18:21;;;;;;;75.50;35.40;;;6.50;99.90;;;;;;5096845;28;20127;-77
2023/12/15 00:20:47;;;;;;;85.20;37.50;;;6.50;99.90;;;;;;5096511;28;20052;-77
2023/12/15 00:23:14;;;;;;;78.83;36.73;;;6.50;99.90;;;;;;5096496;28;20438;-77
2023/12/15 00:25:40;;;;;;;90.73;36.97;;;6.50;99.90;;;;;;5096622;28;20285;-77
2023/12/15 00:28:05;;;;;;;85.60;36.87;;;6.50;99.90;;;;;;5096498;28;20305;-77
2023/12/15 00:30:31;;;;;;;95.53;38.33;;;6.60;99.90;;;;;;5079168;28;20058;-77
2023/12/15 00:32:57;;;;;;;86.73;37.20;;;6.60;99.90;;;;;;5096613;28;20091;-77
2023/12/15 00:35:22;;;;;;;96.00;40.77;;;6.50;99.90;;;;;;5095688;28;20036;-77
2023/12/15 00:37:48;;;;;;;92.07;37.67;;;6.60;99.90;;;;;;5096620;28;20119;-77
2023/12/15 00:40:14;;;;;;;93.13;39.10;;;6.60;99.90;;;;;;5096025;28;20093;-77
2023/12/15 00:42:40;;;;;;;90.67;37.40;;;6.60;99.90;;;;;;5096013;28;20132;-78
2023/12/15 00:45:06;;;;;;;92.57;41.03;;;6.70;99.90;;;;;;5094834;28;20324;-78
2023/12/15 00:47:32;;;;;;;85.87;37.53;;;6.60;99.90;;;;;;5094719;28;20135;-77
2023/12/15 00:49:59;;;;;;;87.37;39.60;;;6.70;99.90;;;;;;5094906;28;20416;-77
2023/12/15 00:52:25;;;;;;;92.40;39.97;;;6.70;99.90;;;;;;5095417;28;20052;-78
2023/12/15 00:54:50;;;;;;;81.23;38.03;;;6.70;99.90;;;;;;5096060;28;20275;-78
2023/12/15 00:57:16;;;;;;;96.97;41.33;;;6.70;99.90;;;;;;5096144;28;20193;-78
2023/12/15 00:59:43;;;;;;;91.53;40.93;;;6.70;99.90;;;;;;5095185;28;20449;-77
2023/12/15 01:02:09;;;;;;;88.33;40.97;;;6.70;99.90;;;;;;5096757;28;20093;-77
2023/12/15 01:04:35;;;;;;;93.03;41.63;;;6.70;99.90;;;;;;5095246;28;20645;-77
2023/12/15 01:07:01;;;;;;;95.57;40.93;;;6.70;99.90;;;;;;5094764;28;20055;-78
2023/12/15 01:09:27;;;;;;;91.80;42.03;;;6.70;99.90;;;;;;5096291;28;20044;-78
2023/12/15 01:11:52;;;;;;;86.30;41.17;;;6.70;99.90;;;;;;5094812;28;20072;-78
2023/12/15 01:14:18;;;;;;;91.67;41.37;;;6.70;99.90;;;;;;5096290;28;20278;-78
2023/12/15 01:16:46;;;;;;;91.80;41.30;;;6.70;99.90;;;;;;5093987;28;20074;-78
2023/12/15 01:19:12;;;;;;;86.80;39.13;;;6.70;99.90;;;;;;5112541;28;20376;-78
2023/12/15 01:21:38;;;;;;;86.57;40.17;;;6.60;99.90;;;;;;5095881;28;20279;-78
2023/12/15 01:24:04;;;;;;;84.17;40.00;;;6.60;99.90;;;;;;5095479;28;20758;-78
2023/12/15 01:26:29;;;;;;;84.53;40.83;;;6.60;99.90;;;;;;5095085;28;20056;-79
2023/12/15 01:28:55;;;;;;;89.47;40.67;;;6.60;99.90;;;;;;5094507;28;20070;-78
2023/12/15 01:31:21;;;;;;;83.37;38.13;;;6.60;99.90;;;;;;5094458;28;20384;-78
2023/12/15 01:33:46;;;;;;;86.57;40.27;;;6.60;99.90;;;;;;5094202;28;20044;-78
2023/12/15 01:36:12;;;;;;;95.03;41.43;;;6.60;99.90;;;;;;5095377;28;20140;-78
2023/12/15 01:38:38;;;;;;;90.03;39.20;;;6.60;99.90;;;;;;5095179;28;20047;-78
2023/12/15 01:41:04;;;;;;;83.67;40.27;;;6.60;99.90;;;;;;5094492;28;20174;-78
2023/12/15 01:43:30;;;;;;;92.40;39.77;;;6.60;99.90;;;;;;5093856;28;20480;-78
2023/12/15 01:45:56;;;;;;;93.10;41.20;;;6.60;99.90;;;;;;5095079;28;20288;-79
2023/12/15 01:48:24;;;;;;;86.80;38.17;;;6.60;99.90;;;;;;5094996;28;20067;-78
2023/12/15 01:50:51;;;;;;;80.73;38.57;;;6.50;99.90;;;;;;5094619;28;20544;-78
2023/12/15 01:53:16;;;;;;;91.03;39.87;;;6.50;99.90;;;;;;5095050;28;20614;-79
2023/12/15 01:55:43;;;;;;;66.67;33.07;;;6.50;99.90;;;;;;5077272;28;20282;-79
2023/12/15 01:58:11;;;;;;;94.67;40.73;;;6.50;99.90;;;;;;5076793;28;20060;-79
2023/12/15 02:00:37;;;;;;;93.90;37.57;;;6.50;99.90;;;;;;5094439;28;20804;-79
2023/12/15 02:03:03;;;;;;;96.57;40.93;;;6.50;99.90;;;;;;5076961;28;20286;-79
2023/12/15 02:05:29;;;;;;;89.60;38.77;;;6.50;99.90;;;;;;5094784;28;20475;-79
2023/12/15 02:07:54;;;;;;;74.77;36.87;;;6.50;99.90;;;;;;5094577;28;20052;-79
2023/12/15 02:10:20;;;;;;;78.87;37.73;;;6.50;99.90;;;;;;5094413;28;20105;-79
2023/12/15 02:12:46;;;;;;;79.57;35.77;;;6.50;99.90;;;;;;5094551;28;20051;-80
2023/12/15 02:15:12;;;;;;;86.40;38.27;;;6.50;99.90;;;;;;5093430;28;20040;-80
2023/12/15 02:17:38;;;;;;;82.47;37.57;;;6.50;99.90;;;;;;5094585;28;20100;-80
2023/12/15 02:20:04;;;;;;;88.07;38.10;;;6.50;99.90;;;;;;5095310;28;20396;-79
2023/12/15 02:22:30;;;;;;;89.17;38.80;;;6.50;99.90;;;;;;5095012;28;20370;-80
2023/12/15 02:24:56;;;;;;;81.70;38.10;;;6.50;99.90;;;;;;5093445;28;20340;-80
2023/12/15 02:27:22;;;;;;;77.70;37.47;;;6.50;99.90;;;;;;5094294;28;20044;-80
2023/12/15 02:29:48;;;;;;;89.37;39.93;;;6.50;99.90;;;;;;5094300;28;20073;-79
2023/12/15 02:32:13;;;;;;;93.30;39.20;;;6.50;99.90;;;;;;5094863;28;20048;-79
2023/12/15 02:34:39;;;;;;;82.93;37.30;;;6.50;99.90;;;;;;5094207;28;20335;-80
2023/12/15 02:37:05;;;;;;;91.27;37.27;;;6.50;99.90;;;;;;5093441;28;20113;-79
2023/12/15 02:39:31;;;;;;;73.80;36.53;;;6.50;99.90;;;;;;5092887;28;20047;-79
2023/12/15 02:41:57;;;;;;;85.63;35.50;;;6.40;99.90;;;;;;5092553;28;20081;-79
2023/12/15 02:44:23;;;;;;;67.20;33.73;;;6.40;99.90;;;;;;5091857;28;20315;-79
2023/12/15 02:46:48;;;;;;;80.03;35.87;;;6.40;99.90;;;;;;5075898;28;20067;-79
2023/12/15 02:49:14;;;;;;;79.77;34.33;;;6.40;99.90;;;;;;5092780;28;20047;-80
2023/12/15 02:51:40;;;;;;;100.80;37.50;;;6.30;99.90;;;;;;5094272;28;20044;-79
2023/12/15 02:54:06;;;;;;;86.43;36.70;;;6.30;99.90;;;;;;5092624;28;20289;-80
2023/12/15 02:56:31;;;;;;;75.50;32.70;;;6.30;99.90;;;;;;5093628;28;20044;-80
2023/12/15 02:58:57;;;;;;;81.17;34.37;;;6.30;99.90;;;;;;5094171;28;20048;-80
2023/12/15 03:01:23;;;;;;;84.43;34.40;;;6.20;99.90;;;;;;5076160;28;20048;-80
2023/12/15 03:03:49;;;;;;;98.83;36.10;;;6.30;99.90;;;;;;5092812;28;20046;-79
2023/12/15 03:06:14;;;;;;;91.60;36.53;;;6.30;99.90;;;;;;5092661;28;20044;-80
2023/12/15 03:08:40;;;;;;;77.93;32.93;;;6.20;99.90;;;;;;5092421;28;20089;-80
2023/12/15 03:11:07;;;;;;;52.57;28.90;;;6.20;99.90;;;;;;5093073;28;20064;-80
2023/12/15 03:13:34;;;;;;;81.43;34.03;;;6.20;99.90;;;;;;5092563;28;20040;-80
2023/12/15 03:16:09;;;;;;;94.73;35.30;;;6.20;99.90;;;;;;5093540;28;20618;-80
2023/12/15 03:18:35;;;;;;;72.27;31.27;;;6.20;99.90;;;;;;5094597;28;20306;-79
2023/12/15 03:21:01;;;;;;;88.10;32.83;;;6.20;99.90;;;;;;5093299;28;20754;-80
2023/12/15 03:23:26;;;;;;;68.53;31.40;;;6.20;99.90;;;;;;5093351;28;20286;-80
2023/12/15 03:25:52;;;;;;;84.70;32.47;;;6.10;99.90;;;;;;5076038;28;20339;-79
2023/12/15 03:28:18;;;;;;;89.80;34.70;;;6.10;99.90;;;;;;5094015;28;20044;-80
2023/12/15 03:30:44;;;;;;;80.83;31.87;;;6.10;99.90;;;;;;5075803;28;20084;-80
2023/12/15 03:33:10;;;;;;;75.67;30.53;;;6.10;99.90;;;;;;5092906;28;20076;-80
2023/12/15 03:35:35;;;;;;;72.87;30.80;;;6.10;99.90;;;;;;5093519;28;20044;-80
2023/12/15 03:38:03;;;;;;;75.13;31.27;;;6.10;99.90;;;;;;5076154;28;20037;-80
2023/12/15 03:40:29;;;;;;;83.90;32.20;;;6.10;99.90;;;;;;5097422;28;20079;-80
2023/12/15 03:42:55;;;;;;;71.13;28.93;;;6.10;99.90;;;;;;5097532;28;20716;-80
2023/12/15 03:45:20;;;;;;;99.30;32.53;;;6.10;99.90;;;;;;5098067;28;20048;-80
2023/12/15 03:47:46;;;;;;;75.93;30.17;;;6.10;99.90;;;;;;5096185;28;20181;-80
2023/12/15 03:50:11;;;;;;;80.93;31.23;;;6.00;99.90;;;;;;5098181;28;20051;-81
2023/12/15 03:52:37;;;;;;;67.07;29.53;;;6.00;99.90;;;;;;5097385;28;20083;-81
2023/12/15 03:55:03;;;;;;;81.93;31.30;;;6.00;99.90;;;;;;5096655;28;20051;-80
2023/12/15 03:57:29;;;;;;;81.83;31.13;;;6.10;99.90;;;;;;5097297;28;20060;-81
2023/12/15 03:59:55;;;;;;;74.70;31.90;;;6.10;99.90;;;;;;5097284;28;20282;-80
2023/12/15 04:02:20;;;;;;;80.83;31.03;;;6.10;99.90;;;;;;5097143;28;20047;-81
2023/12/15 04:04:46;;;;;;;74.97;29.80;;;6.20;99.90;;;;;;5079997;28;20055;-81
2023/12/15 04:07:12;;;;;;;95.27;33.33;;;6.20;99.90;;;;;;5096404;28;20160;-80
2023/12/15 04:09:38;;;;;;;76.03;30.27;;;6.20;99.90;;;;;;5096629;28;20047;-80
2023/12/15 04:12:04;;;;;;;85.13;31.37;;;6.20;99.90;;;;;;5097683;28;20105;-79
2023/12/15 04:14:32;;;;;;;88.40;32.23;;;6.30;99.90;;;;;;5096906;28;20039;-80
2023/12/15 04:16:57;;;;;;;85.03;31.40;;;6.30;99.90;;;;;;5096933;28;20339;-81
2023/12/15 04:19:23;;;;;;;81.17;28.63;;;6.30;99.90;;;;;;5079220;28;20282;-81
2023/12/15 04:21:49;;;;;;;53.33;24.57;;;6.20;99.90;;;;;;5095602;28;20051;-81
2023/12/15 04:24:14;;;;;;;76.73;29.03;;;6.20;99.90;;;;;;5097464;28;20137;-80
2023/12/15 04:26:40;;;;;;;76.10;29.20;;;6.20;99.90;;;;;;5096706;28;20048;-80
2023/12/15 04:29:06;;;;;;;78.47;29.50;;;6.20;99.90;;;;;;5096550;28;20472;-80
2023/12/15 04:31:31;;;;;;;81.53;30.00;;;6.20;99.90;;;;;;5095194;28;20044;-81
2023/12/15 04:33:57;;;;;;;76.87;27.50;;;6.20;99.90;;;;;;5078770;28;20051;-80
2023/12/15 04:36:23;;;;;;;77.97;26.97;;;6.10;99.90;;;;;;5096579;28;20076;-81
2023/12/15 04:38:48;;;;;;;71.73;27.47;;;6.10;99.90;;;;;;5096499;28;20044;-81
2023/12/15 04:41:24;;;;;;;76.33;27.77;;;6.10;99.90;;;;;;5097196;28;20048;-81
2023/12/15 04:43:50;;;;;;;;;;;6.10;99.90;;;;;;5094555;28;20048;-81
2023/12/15 04:46:26;;;;;;;74.50;25.30;;;6.00;99.90;;;;;;5095302;28;20358;-81
2023/12/15 04:48:54;;;;;;;89.40;27.83;;;6.00;99.90;;;;;;5096157;28;20355;-81
2023/12/15 04:51:20;;;;;;;88.20;29.03;;;6.00;99.90;;;;;;5094878;28;20626;-81
2023/12/15 04:53:46;;;;;;;82.37;27.80;;;6.00;99.90;;;;;;5096181;28;20286;-81
2023/12/15 04:56:12;;;;;;;69.40;26.17;;;5.90;99.90;;;;;;5095211;28;20458;-81
2023/12/15 04:58:38;;;;;;;76.13;28.53;;;6.00;99.90;;;;;;5097279;28;20306;-81
2023/12/15 05:01:04;;;;;;;100.33;28.87;;;5.90;99.90;;;;;;5095364;28;20747;-80
2023/12/15 05:03:31;;;;;;;97.90;28.07;;;5.90;99.90;;;;;;5094725;28;20082;-81
2023/12/15 05:05:57;;;;;;;69.67;24.57;;;5.90;99.90;;;;;;5096293;28;20305;-81
2023/12/15 05:08:23;;;;;;;70.83;25.47;;;5.90;99.90;;;;;;5094822;28;20774;-81
2023/12/15 05:10:48;;;;;;;94.27;27.33;;;5.90;99.90;;;;;;5095910;28;20453;-81
2023/12/15 05:13:14;;;;;;;85.33;27.87;;;5.90;99.90;;;;;;5095658;28;20443;-81
2023/12/15 05:15:40;;;;;;;74.97;24.50;;;5.80;99.90;;;;;;5094688;28;20050;-81
2023/12/15 05:18:06;;;;;;;59.37;22.23;;;5.80;99.90;;;;;;5096235;28;20044;-81
2023/12/15 05:20:36;;;;;;;68.17;24.23;;;5.80;99.90;;;;;;5094924;28;20453;-81
2023/12/15 05:23:05;;;;;;;52.83;21.27;;;5.80;99.90;;;;;;5095821;28;20773;-80
2023/12/15 05:25:31;;;;;;;62.47;23.03;;;5.70;99.90;;;;;;5095562;28;20828;-81
2023/12/15 05:27:57;;;;;;;65.40;22.03;;;5.80;99.90;;;;;;5095448;28;20298;-81
2023/12/15 05:30:22;;;;;;;71.60;23.40;;;5.80;99.90;;;;;;5096036;28;20752;-81
2023/12/15 05:32:48;;;;;;;69.13;23.23;;;5.80;99.90;;;;;;5095698;28;20147;-81
2023/12/15 05:35:14;;;;;;;70.80;23.33;;;5.80;99.90;;;;;;5077643;28;20540;-81
2023/12/15 05:37:40;;;;;;;64.40;20.47;;;5.70;99.90;;;;;;5095641;28;20051;-81
2023/12/15 05:40:09;;;;;;;71.83;23.50;;;5.80;99.90;;;;;;5095271;28;20281;-81
2023/12/15 05:42:35;;;;;;;91.93;22.87;;;5.80;99.90;;;;;;5077793;28;20055;-81
2023/12/15 05:45:01;;;;;;;70.70;22.37;;;5.80;99.90;;;;;;5094097;28;20296;-80
2023/12/15 05:47:27;;;;;;;68.00;21.63;;;5.70;99.90;;;;;;5093831;28;20650;-81
2023/12/15 05:49:53;;;;;;;61.90;18.53;;;5.70;99.90;;;;;;5095078;28;20282;-81
2023/12/15 05:52:19;;;;;;;73.47;21.80;;;5.70;99.90;;;;;;5093905;28;20055;-81
2023/12/15 05:54:45;;;;;;;62.87;21.33;;;5.70;99.90;;;;;;5094339;28;20287;-81
2023/12/15 05:57:11;;;;;;;73.83;20.47;;;5.70;99.90;;;;;;5093699;28;20048;-81
2023/12/15 05:59:36;;;;;;;48.80;18.10;;;5.70;99.90;;;;;;5094899;28;20046;-81
2023/12/15 06:02:02;;;;;;;63.93;19.53;;;5.70;99.90;;;;;;5093830;28;20048;-81
2023/12/15 06:04:28;;;;;;;53.83;18.27;;;5.70;99.90;;;;;;5094775;28;20444;-80
2023/12/15 06:06:54;;;;;;;61.70;18.03;;;5.70;99.90;;;;;;5094689;28;20052;-80
2023/12/15 06:09:20;;;;;;;61.93;18.47;;;5.70;99.90;;;;;;5094264;28;20040;-80
2023/12/15 06:11:45;;;;;;;65.97;19.93;;;5.70;99.90;;;;;;5094396;28;20488;-81
2023/12/15 06:14:11;;;;;;;66.40;19.73;;;5.70;99.90;;;;;;5095150;28;20281;-80
2023/12/15 06:16:37;;;;;;;68.37;19.43;;;5.70;99.90;;;;;;5094167;28;20044;-81
2023/12/15 06:19:03;;;;;;;44.40;15.50;;;5.70;99.90;;;;;;5093867;28;20065;-81
2023/12/15 06:21:29;;;;;;;47.47;15.40;;;5.70;99.90;;;;;;5093058;28;20047;-81
2023/12/15 06:23:55;;;;;;;61.50;18.33;;;5.70;99.90;;;;;;5076619;28;20294;-81
2023/12/15 06:26:22;;;;;;;63.03;19.47;;;5.70;99.90;;;;;;5094364;28;20898;-81
2023/12/15 06:28:48;;;;;;;67.87;17.90;;;5.60;99.90;;;;;;5076558;28;20445;-81
2023/12/15 06:31:15;;;;;;;46.92;15.68;;;5.60;99.90;;;;;;5094279;28;20282;-81
2023/12/15 06:33:41;;;;;;;49.17;16.33;;;5.70;99.90;;;;;;5094018;28;20499;-81
2023/12/15 06:36:08;;;;;;;50.97;17.47;;;5.60;99.90;;;;;;5110277;28;20774;-81
2023/12/15 06:38:36;;;;;;;76.00;19.13;;;5.60;99.90;;;;;;5111012;28;20289;-81
2023/12/15 06:41:03;;;;;;;53.77;17.30;;;5.60;99.90;;;;;;5093999;28;20285;-81
2023/12/15 06:43:29;;;;;;;65.23;18.40;;;5.60;99.90;;;;;;5094090;28;20301;-81
2023/12/15 06:45:55;;;;;;;47.80;16.77;;;5.60;99.90;;;;;;5059647;28;20278;-81
2023/12/15 06:48:20;;;;;;;69.77;19.27;;;5.60;99.90;;;;;;5094030;28;20058;-81
2023/12/15 06:50:46;;;;;;;77.73;17.97;;;5.60;99.90;;;;;;5093317;28;20052;-81
2023/12/15 06:53:12;;;;;;;43.30;15.73;;;5.60;99.90;;;;;;5093839;28;20048;-80
2023/12/15 06:55:38;;;;;;;74.57;17.70;;;5.50;99.90;;;;;;5092788;28;20044;-81
2023/12/15 06:58:03;;;;;;;58.53;15.93;;;5.50;99.90;;;;;;5092266;28;20052;-81
2023/12/15 07:00:29;;;;;;;68.03;17.60;;;5.50;99.90;;;;;;5094442;28;20043;-81
2023/12/15 07:02:55;;;;;;;65.37;18.07;;;5.50;99.90;;;;;;5075936;28;20365;-81
2023/12/15 07:05:20;;;;;;;52.70;14.80;;;5.50;99.90;;;;;;5093521;28;20052;-81
2023/12/15 07:07:46;;;;;;;47.50;14.13;;;5.50;99.90;;;;;;5093067;28;20048;-81
2023/12/15 07:10:12;;;;;;;71.50;16.73;;;5.50;99.90;;;;;;5094329;28;20529;-81
2023/12/15 07:12:37;;;;;;;63.67;16.40;;;5.50;99.90;;;;;;5094269;28;20102;-80
2023/12/15 07:15:03;;;;;;;45.13;15.00;;;5.50;99.90;;;;;;5092432;28;20388;-81
2023/12/15 07:17:29;;;;;;;47.90;14.97;;;5.50;99.90;;;;;;5092437;28;20048;-81
2023/12/15 07:19:55;;;;;;;63.93;14.70;;;5.50;99.90;;;;;;5075953;28;20293;-81
2023/12/15 07:22:20;;;;;;;56.90;14.10;;;5.50;99.90;;;;;;5092938;28;20059;-80
2023/12/15 07:24:46;;;;;;;58.57;15.23;;;5.50;99.90;;;;;;5092509;28;20108;-80
2023/12/15 07:27:12;;;;;;;56.47;13.90;;;5.50;99.90;;;;;;5093517;28;20085;-81
2023/12/15 07:29:37;;;;;;;56.53;13.10;;;5.40;99.90;;;;;;5093611;28;20044;-80
2023/12/15 07:32:04;;;;;;;55.90;12.47;;;5.40;99.90;;;;;;5094483;28;20130;-81
2023/12/15 07:34:30;;;;;;;49.63;12.70;;;5.40;99.90;;;;;;5092616;28;20052;-81
2023/12/15 07:36:55;;;;;;;40.63;12.43;;;5.50;99.90;;;;;;5092309;28;20638;-81
2023/12/15 07:39:21;;;;;;;56.60;10.70;;;5.50;99.90;;;;;;5093581;28;20086;-80
2023/12/15 07:41:48;;;;;;;43.53;12.03;;;5.50;99.90;;;;;;5093517;28;20274;-81
2023/12/15 07:44:14;;;;;;;54.97;12.45;;;5.50;99.90;;;;;;5092316;28;20048;-80
2023/12/15 07:46:44;;;;;;;51.38;10.95;;;5.50;99.90;;;;;;5093474;28;20387;-81
2023/12/15 07:49:10;;;;;;;50.30;11.97;;;5.50;99.90;;;;;;5093403;28;20040;-80
2023/12/15 07:51:36;;;;;;;61.30;12.23;;;5.50;99.90;;;;;;5092732;28;20282;-80
2023/12/15 07:54:02;;;;;;;56.77;11.17;;;5.50;99.90;;;;;;5093359;28;20282;-81
2023/12/15 07:56:28;;;;;;;51.33;11.10;;;5.50;99.90;;;;;;5092190;28;20063;-80
2023/12/15 07:58:55;;;;;;;48.47;10.93;;;5.50;99.90;;;;;;5092715;28;20056;-81
2023/12/15 08:01:22;;;;;;;55.13;10.70;;;5.60;99.90;;;;;;5092322;28;20289;-80
2023/12/15 08:03:50;;;;;;;43.45;10.65;;;5.60;99.90;;;;;;5093025;28;20770;-81
2023/12/15 08:06:16;;;;;;;41.93;9.07;;;5.60;99.90;;;;;;5092347;28;20048;-80
2023/12/15 08:08:44;;;;;;;57.00;9.65;;;5.60;99.90;;;;;;5093170;28;20309;-80
2023/12/15 08:11:10;;;;;;;51.45;9.90;;;5.60;99.90;;;;;;5092941;28;20622;-80
2023/12/15 08:13:41;;;;;;;54.35;10.43;;;5.60;99.90;;;;;;5092311;28;20059;-80
2023/12/15 08:16:07;;;;;;;50.40;10.50;;;5.60;99.90;;;;;;5094083;28;20052;-81
2023/12/15 08:18:33;;;;;;;41.63;8.97;;;5.60;99.90;;;;;;5093725;28;20276;-80
2023/12/15 08:21:00;;;;;;;47.03;10.15;;;5.60;99.90;;;;;;5093092;28;20286;-81
2023/12/15 08:23:26;;;;;;;47.50;9.52;;;5.60;99.90;;;;;;5093154;28;20432;-79
2023/12/15 08:25:52;;;;;;;55.50;11.93;;;5.70;99.90;;;;;;5095647;28;20553;-82
2023/12/15 08:28:20;;;;;;;42.97;10.17;;;5.70;99.90;;;;;;5096631;28;20048;-80
2023/12/15 08:30:46;;;;;;;48.07;9.73;;;5.70;99.90;;;;;;5096658;28;20126;-80
2023/12/15 08:33:12;;;;;;;50.30;9.45;;;5.80;99.90;;;;;;5097204;28;20282;-81
2023/12/15 08:35:38;;;;;;;40.80;8.27;;;5.80;99.90;;;;;;5096602;28;20055;-80
2023/12/15 08:38:04;;;;;;;46.23;8.90;;;5.80;99.90;;;;;;5096517;28;20040;-80
2023/12/15 08:40:29;;;;;;;46.10;8.77;;;5.90;99.90;;;;;;5095582;28;20071;-80
2023/12/15 08:42:55;;;;;;;46.63;8.97;;;5.80;99.90;;;;;;5095715;28;20472;-79
2023/12/15 08:45:21;;;;;;;41.70;8.77;;;5.80;99.90;;;;;;5096598;28;20503;-79
2023/12/15 08:47:47;;;;;;;48.50;9.33;;;5.90;99.90;;;;;;5078490;28;20089;-79
2023/12/15 08:50:13;;;;;;;44.40;8.47;;;5.90;99.90;;;;;;5096324;28;20044;-79
2023/12/15 08:52:40;;;;;;;44.50;8.97;;;5.90;99.90;;;;;;5095263;28;20476;-79
2023/12/15 08:55:06;;;;;;;50.73;8.67;;;5.90;99.90;;;;;;5095496;28;20286;-82
2023/12/15 08:57:32;;;;;;;44.17;8.33;;;5.90;99.90;;;;;;5094896;28;20340;-79
2023/12/15 08:59:58;;;;;;;45.03;9.07;;;6.00;99.90;;;;;;5079131;28;20679;-79
2023/12/15 09:02:25;;;;;;;53.33;9.07;;;6.00;99.90;;;;;;5096093;28;20317;-79
2023/12/15 09:04:52;;;;;;;44.37;9.03;;;6.00;99.90;;;;;;5095059;28;20294;-79
2023/12/15 09:07:18;;;;;;;44.97;8.37;;;6.00;99.90;;;;;;5094998;28;20634;-74
2023/12/15 09:09:44;;;;;;;47.53;8.30;;;6.00;99.90;;;;;;5095909;28;20321;-76
2023/12/15 09:12:10;;;;;;;40.37;8.47;;;6.00;99.90;;;;;;5095876;28;20683;-80
2023/12/15 09:14:36;;;;;;;54.80;8.80;;;6.00;99.90;;;;;;5094566;28;20056;-77
2023/12/15 09:17:03;;;;;;;42.73;8.70;;;6.10;99.90;;;;;;5096599;28;20285;-78
2023/12/15 09:19:29;;;;;;;43.30;8.03;;;6.10;99.90;;;;;;5095745;28;20309;-76
2023/12/15 09:21:55;;;;;;;52.63;9.10;;;6.10;99.90;;;;;;5095678;28;20318;-79
2023/12/15 09:24:21;;;;;;;45.37;9.00;;;6.10;99.90;;;;;;5095935;28;20334;-77
2023/12/15 09:26:47;;;;;;;55.53;8.70;;;6.20;99.90;;;;;;5095592;28;20723;-77
2023/12/15 09:29:14;;;;;;;47.70;8.57;;;6.20;99.90;;;;;;5095522;28;20499;-79
2023/12/15 09:31:40;;;;;;;46.03;8.53;;;6.20;99.90;;;;;;5095620;28;20278;-78
2023/12/15 09:34:06;;;;;;;50.77;8.90;;;6.30;99.90;;;;;;5095431;28;20765;-78
2023/12/15 09:36:32;;;;;;;62.93;9.60;;;6.30;99.90;;;;;;5093845;28;20285;-82
2023/12/15 09:38:58;;;;;;;40.53;7.83;;;6.30;99.90;;;;;;5095695;28;20270;-82
2023/12/15 09:41:24;;;;;;;51.40;8.70;;;6.30;99.90;;;;;;5095337;28;20051;-79
2023/12/15 09:43:50;;;;;;;45.37;8.80;;;6.40;99.90;;;;;;5096075;28;20109;-80
2023/12/15 09:46:16;;;;;;;51.83;8.90;;;6.40;99.90;;;;;;5095214;28;20754;-80
2023/12/15 09:48:45;;;;;;;45.07;8.50;;;6.50;99.90;;;;;;5094989;28;20043;-79
2023/12/15 09:51:23;;;;;;;50.77;8.83;;;6.50;99.90;;;;;;5094806;28;20324;-79
2023/12/15 09:53:49;;;;;;;49.33;10.00;;;6.50;99.90;;;;;;5096224;28;20289;-80
2023/12/15 09:56:16;;;;;;;45.77;9.27;;;6.60;99.90;;;;;;5094099;28;20770;-78
2023/12/15 09:58:42;;;;;;;43.87;7.97;;;6.60;99.90;;;;;;5093402;28;20302;-81
2023/12/15 10:01:11;;;;;;;48.37;8.50;;;6.60;99.90;;;;;;5095487;28;20286;-78
2023/12/15 10:03:38;;;;;;;47.10;8.40;;;6.70;99.90;;;;;;5094868;28;20803;-78
2023/12/15 10:06:05;;;;;;;44.10;8.93;;;6.80;99.90;;;;;;5093662;28;20314;-78
2023/12/15 10:08:42;;;;;;;42.70;8.53;;;6.90;99.90;;;;;;5093662;28;20342;-78
2023/12/15 10:11:08;;;;;;;55.40;9.30;;;6.90;99.90;;;;;;5094690;28;20310;-78
2023/12/15 10:13:33;;;;;;;47.17;9.03;;;7.00;99.90;;;;;;5093682;28;20325;-78
2023/12/15 10:15:59;;;;;;;55.17;8.97;;;7.00;99.90;;;;;;5093461;28;20069;-78
2023/12/15 10:18:25;;;;;;;47.93;8.80;;;7.10;99.90;;;;;;5094579;28;20507;-78
2023/12/15 10:20:53;;;;;;;50.83;9.00;;;7.10;99.90;;;;;;5094564;28;20046;-80
2023/12/15 10:23:29;;;;;;;54.90;8.27;;;7.10;99.90;;;;;;5093538;28;20104;-79
2023/12/15 10:25:58;;;;;;;55.27;10.40;;;7.20;99.90;;;;;;5093250;28;20289;-80
2023/12/15 10:28:24;;;;;;;49.47;8.10;;;7.20;99.90;;;;;;5094360;28;20778;-78
2023/12/15 10:30:51;;;;;;;57.03;9.77;;;7.30;99.90;;;;;;5093320;28;20289;-72
2023/12/15 10:33:18;;;;;;;45.63;8.47;;;7.30;99.90;;;;;;5094348;28;20044;-79
2023/12/15 10:35:47;;;;;;;50.23;8.20;;;7.30;99.90;;;;;;5094287;28;20281;-83
2023/12/15 10:38:14;;;;;;;47.10;8.67;;;7.40;99.90;;;;;;5094257;28;20829;-78
2023/12/15 10:40:40;;;;;;;52.87;8.83;;;7.40;99.90;;;;;;5093300;28;20322;-79
2023/12/15 10:43:08;;;;;;;51.43;9.13;;;7.40;99.90;;;;;;5077058;28;20297;-77
2023/12/15 10:45:35;;;;;;;53.40;9.43;;;7.40;99.90;;;;;;5093183;28;20381;-77
2023/12/15 10:48:02;;;;;;;48.17;9.40;;;7.40;99.90;;;;;;5092146;28;20302;-77
2023/12/15 10:50:29;;;;;;;45.23;8.10;;;7.50;99.90;;;;;;5076544;28;20282;-77
2023/12/15 10:52:55;;;;;;;44.77;8.03;;;7.50;99.90;;;;;;5093316;28;20286;-81
2023/12/15 10:55:26;;;;;;;44.63;8.13;;;7.60;99.90;;;;;;5094011;28;20364;-81
2023/12/15 10:57:52;;;;;;;46.23;7.87;;;7.60;99.90;;;;;;5092937;28;20381;-79
2023/12/15 11:00:19;;;;;;;48.07;8.37;;;7.60;99.90;;;;;;5092915;28;20293;-78
2023/12/15 11:02:46;;;;;;;42.67;8.40;;;7.60;99.90;;;;;;5093259;28;20284;-81
2023/12/15 11:05:13;;;;;;;47.57;9.20;;;7.70;99.90;;;;;;5093736;28;20343;-77
2023/12/15 11:07:42;;;;;;;38.90;8.23;;;7.80;99.90;;;;;;5094052;28;20284;-79
2023/12/15 11:10:09;;;;;;;51.70;8.03;;;7.80;99.90;;;;;;5093947;28;20607;-82
2023/12/15 11:12:37;;;;;;;54.53;8.40;;;7.80;99.90;;;;;;5092808;28;20283;-75
2023/12/15 11:15:11;;;;;;;49.10;9.27;;;7.80;99.90;;;;;;5093789;28;20331;-77
2023/12/15 11:17:41;;;;;;;46.17;8.53;;;7.80;99.90;;;;;;5094356;28;20283;-82
2023/12/15 11:20:19;;;;;;;51.50;9.23;;;7.90;99.90;;;;;;5092782;28;20290;-78
2023/12/15 11:22:49;;;;;;;41.17;8.33;;;7.90;99.90;;;;;;5093641;28;20286;-83
2023/12/15 11:25:19;;;;;;;52.10;8.67;;;7.90;99.90;;;;;;5093677;28;20322;-83
2023/12/15 11:28:01;;;;;;;50.30;8.67;;;8.00;99.90;;;;;;5075746;28;20313;-82
2023/12/15 11:30:29;;;;;;;51.47;8.87;;;8.00;99.90;;;;;;5092599;28;20782;-83
2023/12/15 11:32:55;;;;;;;45.27;8.07;;;8.00;99.90;;;;;;5093593;28;20762;-83
2023/12/15 11:35:33;;;;;;;49.03;9.13;;;8.10;99.90;;;;;;5094384;28;20282;-83
2023/12/15 11:37:59;;;;;;;42.30;7.73;;;8.10;99.90;;;;;;5092354;28;20282;-84
2023/12/15 11:40:29;;;;;;;45.03;8.50;;;8.10;99.90;;;;;;5092639;28;20377;-81
2023/12/15 11:42:56;;;;;;;41.70;7.33;;;8.10;99.90;;;;;;5092605;28;20347;-81
2023/12/15 11:45:26;;;;;;;43.67;9.30;;;8.10;99.90;;;;;;5075876;28;20282;-81
2023/12/15 11:47:53;;;;;;;45.10;9.63;;;8.20;99.90;;;;;;5093422;28;20313;-81
2023/12/15 11:50:21;;;;;;;40.67;8.10;;;8.10;99.90;;;;;;5093549;28;20294;-80
2023/12/15 11:52:48;;;;;;;47.70;8.47;;;8.10;99.90;;;;;;5093275;28;20293;-81
2023/12/15 11:55:15;;;;;;;47.17;8.60;;;8.20;99.90;;;;;;5093378;28;20330;-77
2023/12/15 11:57:40;;;;;;;59.33;9.93;;;8.20;99.90;;;;;;5093614;28;20295;-75
2023/12/15 12:00:09;;;;;;;52.77;9.60;;;8.20;99.90;;;;;;5095435;28;20282;-76
2023/12/15 12:02:36;;;;;;;48.53;8.33;;;8.20;99.90;;;;;;5097267;28;20059;-76
2023/12/15 12:05:02;;;;;;;46.47;9.97;;;8.30;99.90;;;;;;5095919;28;20282;-76
2023/12/15 12:07:28;;;;;;;51.53;9.10;;;8.30;99.90;;;;;;5097161;28;20285;-76
2023/12/15 12:09:53;;;;;;;37.90;7.43;;;8.30;99.90;;;;;;5097031;28;20297;-76
2023/12/15 12:12:19;;;;;;;40.73;8.70;;;8.30;99.90;;;;;;5097367;28;20047;-74
2023/12/15 12:14:46;;;;;;;43.73;8.57;;;8.30;99.90;;;;;;5096963;28;20036;-77
2023/12/15 12:17:13;;;;;;;42.50;8.57;;;8.40;99.90;;;;;;5097234;28;20052;-78
2023/12/15 12:19:43;;;;;;;40.30;8.03;;;8.40;99.90;;;;;;5096621;28;20291;-77
2023/12/15 12:22:13;;;;;;;43.23;8.80;;;8.40;99.90;;;;;;5097411;28;20297;-77
2023/12/15 12:24:38;;;;;;;45.13;8.33;;;8.40;99.90;;;;;;5096508;28;20634;-78
2023/12/15 12:27:08;;;;;;;41.73;8.97;;;8.50;99.90;;;;;;5096717;28;20281;-76
2023/12/15 12:29:39;;;;;;;44.67;8.77;;;8.50;99.90;;;;;;5096281;28;20477;-76
2023/12/15 12:32:06;;;;;;;53.60;9.20;;;8.50;99.90;;;;;;5096695;28;20343;-77
2023/12/15 12:34:31;;;;;;;47.30;8.47;;;8.50;99.90;;;;;;5079590;28;20274;-78
2023/12/15 12:36:57;;;;;;;45.10;7.43;;;8.50;99.90;;;;;;5078969;28;20361;-78